Omaha, NE (68136)

11:57 AM CDT on September 29, 2016 (GMT -0500)
Tiburon Neighborhood | | Change Station

Elev 1240 ft 41.16 °N, 96.19 °W | Updated 38 seconds ago

Scattered Clouds
Scattered Clouds
62.4 °F
Feels Like 62.4 °F
N
4.0
Wind Variable Wind from NNE
Gusts 11.0 mph

Today
High -- | Low -- °F
--% Chance of Precip.
Yesterday
High -- | Low -- °F
Precip. -- in
Pressure 30.44 in
Visibility 10.0 miles
Clouds Scattered Clouds 2200 ft
Dew Point 54 °F
Humidity 75%
Rainfall 0.00 in
Snow Depth Not available.
7:19 AM 7:09 PM
Waning Crescent, 2% visible
METAR KMLE 291635Z AUTO 31005KT 10SM SCT022 16/11 A3044 RMK AO2 T01640111
Pressure 30.44 in
Visibility 10.0 miles
Clouds Scattered Clouds 2200 ft
Dew Point 54 °F
Humidity 75%
Rainfall 0.00 in
Snow Depth Not available.
7:19 AM 7:09 PM
Waning Crescent, 2% visible
METAR KMLE 291635Z AUTO 31005KT 10SM SCT022 16/11 A3044 RMK AO2 T01640111

10-Day Weather Forecast

Almanac

Astronomy

Sep. 29, 2016 Rise Set
Actual Time
Civil Twilight
Nautical Twilight
Astronomical Twilight
Moon
Length of Visible Light
Length of Day
Tomorrow will be .
, % of the Moon is Illuminated

Today's Extremes

State Highs State Lows

Community

WunderPhotos

Upload Photos

1,942,520 photos uploaded!

WunderBlog® & News

Nearby

Air Quality

  Air Quality AQ Index Pollutant
Not available.

Snow Depth

Station Depth Elevation

Earthquake Activity

City Distance Mag. Time & Date
Minimum magnitude displayed is 2.5.

Coastal Water Temperatures

Place Temperature

Stations

Nearby Weather Stations

Station Location Temp. Windchill Dew Point Humidity Wind Precip. Elev Updated Type
                   

Watches & Warnings

There are currently no watches in effect.